YWLM/NTL METAR and TAF weather

Enter ICAO airport designator
Station Type Date Time Source
YWLM METAR 2018/12/15 05:00 UTC NOAA

YWLM 150500Z AUTO 07013KT 9999 // SCT023 27/23 Q1003


Station Type Date Time Source
YWLM Decoded METAR 2018/12/15 05:00 UTC NOAA

Station name not available
Dec 15, 2018 - 12:00 AM EST / 2018.12.15 0500 UTC
Wind: from the ENE (070 degrees) at 15 MPH (13 KT):0
Visibility: greater than 7 mile(s):0
Sky conditions: partly cloudy
Temperature: 80 F (27 C)
Dew Point: 73 F (23 C)
Relative Humidity: 78%
Pressure (altimeter): 29.62 in. Hg (1003 hPa)
ob: YWLM 150500Z AUTO 07013KT 9999 // SCT023 27/23 Q1003
cycle: 5

Station Type Date Time Source
YWLM TAF 2018/12/14 17:24 UTC NOAA

TAF
AMD YWLM 141722Z 1417/1518 VRB05KT 9999 -SHRA SCT025
FM142300 06012KT 9999 -SHRA SCT025
FM150200 05015G25KT 9999 -SHRA BKN025
FM151000 03010KT 9999 -SHRA SCT010 BKN025 INTER 1500/1512 5000 SHRA BKN010 PROB40
TEMPO 1502/1512 VRB25G40KT 2000 TSRA BKN010 SCT050CB


Example: see airport list